createdAt,value
2019-01-20T00:00:05.165Z,1008.95
2019-01-20T00:01:05.153Z,1008.94
2019-01-20T00:02:05.161Z,1008.98
2019-01-20T00:03:05.134Z,1008.95
2019-01-20T00:04:05.152Z,1008.95
2019-01-20T00:05:05.117Z,1008.99
2019-01-20T00:06:05.101Z,1009.00
2019-01-20T00:07:05.117Z,1009.01
2019-01-20T00:08:05.084Z,1009.01
2019-01-20T00:09:05.073Z,1009.01
2019-01-20T00:10:05.089Z,1008.96
2019-01-20T00:11:05.065Z,1009.01
2019-01-20T00:12:05.038Z,1008.99
2019-01-20T00:13:05.057Z,1009.05
2019-01-20T00:14:05.019Z,1009.00
2019-01-20T00:15:05.032Z,1008.96
2019-01-20T00:16:05.046Z,1008.98
2019-01-20T00:17:04.996Z,1009.02
2019-01-20T00:18:04.988Z,1009.03
2019-01-20T00:19:04.989Z,1009.02
2019-01-20T00:20:04.954Z,1009.01
2019-01-20T00:21:04.943Z,1009.05
2019-01-20T00:22:04.932Z,1009.01
2019-01-20T00:23:04.925Z,1009.00
2019-01-20T00:24:04.946Z,1009.03
2019-01-20T00:25:04.922Z,1009.07
2019-01-20T00:26:04.891Z,1009.04
2019-01-20T00:27:04.912Z,1009.02
2019-01-20T00:28:04.868Z,1009.01
2019-01-20T00:29:04.859Z,1009.04
2019-01-20T00:30:04.880Z,1009.03
2019-01-20T00:31:04.841Z,1009.01
2019-01-20T00:32:04.828Z,1009.03
2019-01-20T00:33:04.825Z,1009.00
2019-01-20T00:34:04.832Z,1009.01
2019-01-20T00:35:04.832Z,1009.02
2019-01-20T00:36:05.043Z,1009.01
2019-01-20T00:37:04.797Z,1009.01
2019-01-20T00:38:04.813Z,1009.01
2019-01-20T00:39:04.765Z,1009.07
2019-01-20T00:40:04.746Z,1009.09
2019-01-20T00:41:04.747Z,1009.05
2019-01-20T00:42:04.746Z,1009.07
2019-01-20T00:43:04.719Z,1008.99
2019-01-20T00:44:04.705Z,1009.09
2019-01-20T00:45:04.700Z,1009.05
2019-01-20T00:46:04.751Z,1009.05
2019-01-20T00:47:04.713Z,1009.02
2019-01-20T00:48:04.664Z,1008.99
2019-01-20T00:49:04.666Z,1009.04
2019-01-20T00:50:04.636Z,1009.02
2019-01-20T00:51:04.630Z,1009.04
2019-01-20T00:52:04.619Z,1009.03
2019-01-20T00:53:04.650Z,1009.02
2019-01-20T00:54:04.628Z,1009.05
2019-01-20T00:55:04.598Z,1009.04
2019-01-20T00:56:04.629Z,1009.06
2019-01-20T00:57:04.627Z,1009.09
2019-01-20T00:58:04.565Z,1009.06
2019-01-20T00:59:04.567Z,1009.08
2019-01-20T01:00:04.539Z,1009.03
2019-01-20T01:01:05.018Z,1009.07
2019-01-20T01:02:04.515Z,1009.06
2019-01-20T01:03:04.528Z,1009.12
2019-01-20T01:04:04.518Z,1009.06
2019-01-20T01:05:04.495Z,1009.02
2019-01-20T01:06:04.507Z,1009.06
2019-01-20T01:07:04.485Z,1009.00
2019-01-20T01:08:04.606Z,1009.00
2019-01-20T01:09:04.584Z,1009.01
2019-01-20T01:10:04.434Z,1009.01
2019-01-20T01:11:04.419Z,1008.94
2019-01-20T01:12:04.472Z,1008.95
2019-01-20T01:13:04.397Z,1008.94
2019-01-20T01:14:04.385Z,1009.00
2019-01-20T01:15:04.373Z,1009.02
2019-01-20T01:16:04.364Z,1008.98
2019-01-20T01:17:04.375Z,1009.05
2019-01-20T01:18:04.361Z,1008.99
2019-01-20T01:19:04.336Z,1009.04
2019-01-20T01:20:04.320Z,1009.05
2019-01-20T01:21:04.308Z,1009.03
2019-01-20T01:22:04.316Z,1009.00
2019-01-20T01:23:04.287Z,1009.08
2019-01-20T01:24:04.281Z,1009.02
2019-01-20T01:25:04.292Z,1009.05
2019-01-20T01:26:04.259Z,1009.08
2019-01-20T01:27:04.264Z,1009.07
2019-01-20T01:28:04.243Z,1009.08
2019-01-20T01:29:04.225Z,1009.10
2019-01-20T01:30:04.212Z,1009.13
2019-01-20T01:31:04.226Z,1009.11
2019-01-20T01:32:04.211Z,1009.11
2019-01-20T01:33:04.204Z,1009.11
2019-01-20T01:34:04.170Z,1009.13
2019-01-20T01:35:04.170Z,1009.09
2019-01-20T01:36:04.152Z,1009.10
2019-01-20T01:37:04.250Z,1009.11
2019-01-20T01:38:04.263Z,1009.13
2019-01-20T01:39:08.177Z,1009.11
2019-01-20T01:40:12.676Z,1009.15
2019-01-20T01:41:04.101Z,1009.10
2019-01-20T01:42:04.108Z,1009.10
2019-01-20T01:43:04.119Z,1009.06
2019-01-20T01:44:04.067Z,1009.09
2019-01-20T01:45:04.161Z,1009.07
2019-01-20T01:46:04.044Z,1009.09
2019-01-20T01:47:04.033Z,1009.07
2019-01-20T01:48:04.050Z,1009.10
2019-01-20T01:49:04.013Z,1009.11
2019-01-20T01:50:04.003Z,1009.09
2019-01-20T01:51:03.997Z,1009.13
2019-01-20T01:52:04.010Z,1009.06
2019-01-20T01:53:04.006Z,1009.13
2019-01-20T01:54:04.011Z,1009.13
2019-01-20T01:55:04.027Z,1009.13
2019-01-20T01:56:03.944Z,1009.16
2019-01-20T01:57:03.929Z,1009.17
2019-01-20T01:58:03.927Z,1009.13
2019-01-20T01:59:03.928Z,1009.16
2019-01-20T02:00:03.898Z,1009.14
2019-01-20T02:01:03.895Z,1009.14
2019-01-20T02:02:03.896Z,1009.18
2019-01-20T02:03:03.896Z,1009.19
2019-01-20T02:04:03.872Z,1009.13
2019-01-20T02:05:03.847Z,1009.12
2019-01-20T02:06:03.837Z,1009.18
2019-01-20T02:07:03.823Z,1009.14
2019-01-20T02:08:03.817Z,1009.19
2019-01-20T02:09:03.826Z,1009.19
2019-01-20T02:10:03.815Z,1009.19
2019-01-20T02:11:03.804Z,1009.20
2019-01-20T02:12:03.865Z,1009.19
2019-01-20T02:13:03.756Z,1009.19
2019-01-20T02:14:03.765Z,1009.18
2019-01-20T02:15:03.736Z,1009.17
2019-01-20T02:16:03.723Z,1009.20
2019-01-20T02:17:03.714Z,1009.22
2019-01-20T02:18:03.703Z,1009.16
2019-01-20T02:19:03.725Z,1009.19
2019-01-20T02:20:03.683Z,1009.17
2019-01-20T02:21:03.673Z,1009.21
2019-01-20T02:22:03.673Z,1009.17
2019-01-20T02:23:03.654Z,1009.21
2019-01-20T02:24:03.638Z,1009.18
2019-01-20T02:25:03.648Z,1009.19
2019-01-20T02:26:03.627Z,1009.21
2019-01-20T02:27:03.610Z,1009.16
2019-01-20T02:28:03.602Z,1009.14
2019-01-20T02:29:03.597Z,1009.13
2019-01-20T02:30:03.607Z,1009.09
2019-01-20T02:31:03.624Z,1009.15
2019-01-20T02:32:03.634Z,1009.15
2019-01-20T02:33:03.609Z,1009.19
2019-01-20T02:34:03.543Z,1009.14
2019-01-20T02:35:12.151Z,1009.13
2019-01-20T02:36:03.510Z,1009.15
2019-01-20T02:37:03.506Z,1009.14
2019-01-20T02:38:03.530Z,1009.18
2019-01-20T02:39:03.484Z,1009.16
2019-01-20T02:40:03.477Z,1009.17
2019-01-20T02:41:03.508Z,1009.19
2019-01-20T02:42:03.450Z,1009.19
2019-01-20T02:43:03.443Z,1009.20
2019-01-20T02:44:03.430Z,1009.26
2019-01-20T02:45:03.420Z,1009.19
2019-01-20T02:46:03.439Z,1009.22
2019-01-20T02:47:03.405Z,1009.22
2019-01-20T02:48:03.397Z,1009.19
2019-01-20T02:49:03.385Z,1009.21
2019-01-20T02:50:03.365Z,1009.24
2019-01-20T02:51:03.376Z,1009.21
2019-01-20T02:52:03.359Z,1009.23
2019-01-20T02:53:03.338Z,1009.22
2019-01-20T02:54:03.367Z,1009.25
2019-01-20T02:55:03.514Z,1009.18
2019-01-20T02:56:03.328Z,1009.21
2019-01-20T02:57:03.295Z,1009.16
2019-01-20T02:58:03.296Z,1009.23
2019-01-20T02:59:03.281Z,1009.14
2019-01-20T03:00:03.259Z,1009.17
2019-01-20T03:01:03.246Z,1009.19
2019-01-20T03:02:03.261Z,1009.20
2019-01-20T03:03:03.235Z,1009.23
2019-01-20T03:04:03.215Z,1009.20
2019-01-20T03:05:03.205Z,1009.20
2019-01-20T03:06:03.195Z,1009.22
2019-01-20T03:07:03.209Z,1009.19
2019-01-20T03:08:03.190Z,1009.20
2019-01-20T03:09:03.170Z,1009.22
2019-01-20T03:10:03.158Z,1009.18
2019-01-20T03:11:03.144Z,1009.19
2019-01-20T03:12:03.808Z,1009.21
2019-01-20T03:13:03.144Z,1009.22
2019-01-20T03:14:03.113Z,1009.26
2019-01-20T03:15:03.102Z,1009.17
2019-01-20T03:16:03.117Z,1009.19
2019-01-20T03:17:03.102Z,1009.23
2019-01-20T03:18:03.070Z,1009.22
2019-01-20T03:19:03.062Z,1009.16
2019-01-20T03:20:03.056Z,1009.19
2019-01-20T03:21:03.114Z,1009.15
2019-01-20T03:22:03.062Z,1009.19
2019-01-20T03:23:03.019Z,1009.16
2019-01-20T03:24:03.056Z,1009.14
2019-01-20T03:25:03.058Z,1009.16
2019-01-20T03:26:03.024Z,1009.16
2019-01-20T03:27:03.014Z,1009.16
2019-01-20T03:28:02.976Z,1009.17
2019-01-20T03:29:02.987Z,1009.22
2019-01-20T03:30:02.949Z,1009.16
2019-01-20T03:31:02.942Z,1009.16
2019-01-20T03:32:03.026Z,1009.13
2019-01-20T03:33:02.977Z,1009.14
2019-01-20T03:34:02.933Z,1009.12
2019-01-20T03:35:02.909Z,1009.13
2019-01-20T03:36:02.882Z,1009.11
2019-01-20T03:37:02.917Z,1009.12
2019-01-20T03:38:02.884Z,1009.10
2019-01-20T03:39:02.878Z,1009.12
2019-01-20T03:40:02.842Z,1009.09
2019-01-20T03:41:02.830Z,1009.15
2019-01-20T03:42:02.815Z,1009.11
2019-01-20T03:43:02.835Z,1009.15
2019-01-20T03:44:02.801Z,1009.15
2019-01-20T03:45:02.796Z,1009.11
2019-01-20T03:46:02.815Z,1009.09
2019-01-20T03:47:02.768Z,1009.11
2019-01-20T03:48:02.779Z,1009.09
2019-01-20T03:49:02.754Z,1009.11
2019-01-20T03:50:02.766Z,1009.09
2019-01-20T03:51:02.735Z,1009.07
2019-01-20T03:52:02.717Z,1009.06
2019-01-20T03:53:02.719Z,1009.04
2019-01-20T03:54:02.750Z,1009.05
2019-01-20T03:55:02.717Z,1009.05
2019-01-20T03:56:02.691Z,1009.05
2019-01-20T03:57:02.666Z,1009.09
2019-01-20T03:58:02.670Z,1009.10
2019-01-20T03:59:02.679Z,1009.07
2019-01-20T04:00:02.627Z,1009.08
2019-01-20T04:01:02.618Z,1009.07
2019-01-20T04:02:02.619Z,1009.04
2019-01-20T04:03:02.613Z,1009.03
2019-01-20T04:04:02.649Z,1009.02
2019-01-20T04:05:02.587Z,1009.02
2019-01-20T04:06:02.603Z,1008.99
2019-01-20T04:07:02.625Z,1009.00
2019-01-20T04:08:02.601Z,1008.97
2019-01-20T04:09:02.573Z,1008.99
2019-01-20T04:10:02.531Z,1008.97
2019-01-20T04:11:02.520Z,1009.01
2019-01-20T04:12:02.504Z,1009.02
2019-01-20T04:13:02.546Z,1009.04
2019-01-20T04:14:02.538Z,1008.98
2019-01-20T04:15:02.465Z,1009.03
2019-01-20T04:16:02.461Z,1009.04
2019-01-20T04:17:02.445Z,1008.96
2019-01-20T04:18:02.440Z,1009.01
2019-01-20T04:19:02.449Z,1009.02
2019-01-20T04:20:02.417Z,1009.06
2019-01-20T04:21:02.403Z,1009.02
2019-01-20T04:22:02.461Z,1009.04
2019-01-20T04:23:02.396Z,1009.02
2019-01-20T04:24:02.389Z,1009.02
2019-01-20T04:25:02.374Z,1009.03
2019-01-20T04:26:02.422Z,1009.01
2019-01-20T04:27:02.343Z,1009.04
2019-01-20T04:28:02.332Z,1009.00
2019-01-20T04:29:02.351Z,1009.00
2019-01-20T04:30:02.309Z,1009.03
2019-01-20T04:31:09.868Z,1009.01
2019-01-20T04:32:02.340Z,1009.01
2019-01-20T04:33:02.280Z,1008.98
2019-01-20T04:34:02.335Z,1008.96
2019-01-20T04:35:02.261Z,1008.96
2019-01-20T04:36:02.253Z,1008.99
2019-01-20T04:37:02.269Z,1008.97
2019-01-20T04:38:02.229Z,1008.97
2019-01-20T04:39:02.220Z,1009.01
2019-01-20T04:40:02.302Z,1008.99
2019-01-20T04:41:02.201Z,1009.03
2019-01-20T04:42:02.232Z,1009.05
2019-01-20T04:43:02.171Z,1009.05
2019-01-20T04:44:02.181Z,1009.03
2019-01-20T04:45:02.234Z,1008.99
2019-01-20T04:46:02.176Z,1009.07
2019-01-20T04:47:02.172Z,1009.08
2019-01-20T04:48:02.126Z,1009.09
2019-01-20T04:49:02.121Z,1009.04
2019-01-20T04:50:02.158Z,1009.10
2019-01-20T04:51:02.114Z,1009.08
2019-01-20T04:52:02.083Z,1009.09
2019-01-20T04:53:02.074Z,1009.12
2019-01-20T04:54:02.075Z,1009.14
2019-01-20T04:55:02.089Z,1009.12
2019-01-20T04:56:02.064Z,1009.12
2019-01-20T04:57:02.029Z,1009.12
2019-01-20T04:58:02.019Z,1009.15
2019-01-20T04:59:02.044Z,1009.14
2019-01-20T05:00:01.995Z,1009.14
2019-01-20T05:01:01.988Z,1009.12
2019-01-20T05:02:02.006Z,1009.13
2019-01-20T05:03:01.979Z,1009.12
2019-01-20T05:04:01.971Z,1009.12
2019-01-20T05:05:01.953Z,1009.15
2019-01-20T05:06:01.982Z,1009.16
2019-01-20T05:07:02.003Z,1009.11
2019-01-20T05:08:01.909Z,1009.14
2019-01-20T05:09:01.913Z,1009.15
2019-01-20T05:10:01.887Z,1009.11
2019-01-20T05:11:01.914Z,1009.11
2019-01-20T05:12:01.905Z,1009.14
2019-01-20T05:13:01.856Z,1009.17
2019-01-20T05:14:01.848Z,1009.17
2019-01-20T05:15:01.854Z,1009.16
2019-01-20T05:16:01.826Z,1009.20
2019-01-20T05:17:01.861Z,1009.19
2019-01-20T05:18:01.815Z,1009.16
2019-01-20T05:19:01.795Z,1009.17
2019-01-20T05:20:01.825Z,1009.19
2019-01-20T05:21:01.793Z,1009.18
2019-01-20T05:22:01.767Z,1009.24
2019-01-20T05:23:01.804Z,1009.23
2019-01-20T05:24:01.749Z,1009.18
2019-01-20T05:25:01.731Z,1009.18
2019-01-20T05:26:01.720Z,1009.21
2019-01-20T05:27:01.759Z,1009.20
2019-01-20T05:28:12.669Z,1009.23
2019-01-20T05:29:01.711Z,1009.16
2019-01-20T05:30:01.681Z,1009.19
2019-01-20T05:31:09.232Z,1009.20
2019-01-20T05:32:01.661Z,1009.21
2019-01-20T05:33:01.644Z,1009.19
2019-01-20T05:34:01.670Z,1009.16
2019-01-20T05:35:01.671Z,1009.15
2019-01-20T05:36:01.619Z,1009.18
2019-01-20T05:37:01.720Z,1009.20
2019-01-20T05:38:01.591Z,1009.20
2019-01-20T05:39:01.604Z,1009.19
2019-01-20T05:40:01.611Z,1009.20
2019-01-20T05:41:01.583Z,1009.23
2019-01-20T05:42:01.553Z,1009.23
2019-01-20T05:43:01.597Z,1009.22
2019-01-20T05:44:01.552Z,1009.17
2019-01-20T05:45:01.541Z,1009.22
2019-01-20T05:46:01.514Z,1009.21
2019-01-20T05:47:01.498Z,1009.25
2019-01-20T05:48:01.488Z,1009.25
2019-01-20T05:49:01.537Z,1009.22
2019-01-20T05:50:01.472Z,1009.23
2019-01-20T05:51:01.460Z,1009.21
2019-01-20T05:52:01.444Z,1009.26
2019-01-20T05:53:01.436Z,1009.23
2019-01-20T05:54:01.426Z,1009.20
2019-01-20T05:55:01.457Z,1009.21
2019-01-20T05:56:02.021Z,1009.24
2019-01-20T05:57:01.391Z,1009.27
2019-01-20T05:58:01.381Z,1009.26
2019-01-20T05:59:01.388Z,1009.32
2019-01-20T06:00:01.368Z,1009.26
2019-01-20T06:01:01.421Z,1009.27
2019-01-20T06:02:01.354Z,1009.34
2019-01-20T06:03:01.332Z,1009.27
2019-01-20T06:04:01.355Z,1009.28
2019-01-20T06:05:01.312Z,1009.35
2019-01-20T06:06:01.303Z,1009.37
2019-01-20T06:07:01.285Z,1009.35
2019-01-20T06:08:01.312Z,1009.39
2019-01-20T06:09:01.298Z,1009.38
2019-01-20T06:10:01.258Z,1009.43
2019-01-20T06:11:01.269Z,1009.42
2019-01-20T06:12:01.238Z,1009.42
2019-01-20T06:13:01.227Z,1009.44
2019-01-20T06:14:01.215Z,1009.44
2019-01-20T06:15:01.231Z,1009.52
2019-01-20T06:16:01.268Z,1009.47
2019-01-20T06:17:01.179Z,1009.53
2019-01-20T06:18:01.169Z,1009.56
2019-01-20T06:19:01.174Z,1009.58
2019-01-20T06:20:01.158Z,1009.62
2019-01-20T06:21:01.181Z,1009.65
2019-01-20T06:22:01.140Z,1009.70
2019-01-20T06:23:01.124Z,1009.71
2019-01-20T06:24:01.108Z,1009.71
2019-01-20T06:25:01.100Z,1009.69
2019-01-20T06:26:01.127Z,1009.73
2019-01-20T06:27:01.194Z,1009.70
2019-01-20T06:28:01.077Z,1009.73
2019-01-20T06:29:01.060Z,1009.71
2019-01-20T06:30:01.063Z,1009.76
2019-01-20T06:31:01.079Z,1009.73
2019-01-20T06:32:01.048Z,1009.74
2019-01-20T06:33:01.017Z,1009.72
2019-01-20T06:34:01.049Z,1009.74
2019-01-20T06:35:00.997Z,1009.77
2019-01-20T06:36:00.980Z,1009.76
2019-01-20T06:37:01.003Z,1009.73
2019-01-20T06:38:00.965Z,1009.77
2019-01-20T06:39:00.956Z,1009.78
2019-01-20T06:40:00.943Z,1009.80
2019-01-20T06:41:00.942Z,1009.80
2019-01-20T06:42:00.941Z,1009.80
2019-01-20T06:43:02.041Z,1009.83
2019-01-20T06:44:00.909Z,1009.79
2019-01-20T06:45:00.908Z,1009.80
2019-01-20T06:46:00.876Z,1009.81
2019-01-20T06:47:01.194Z,1009.86
2019-01-20T06:48:00.913Z,1009.86
2019-01-20T06:49:00.861Z,1009.88
2019-01-20T06:50:00.844Z,1009.88
2019-01-20T06:51:00.824Z,1009.89
2019-01-20T06:52:00.875Z,1009.92
2019-01-20T06:53:00.804Z,1009.86
2019-01-20T06:54:00.801Z,1009.86
2019-01-20T06:55:00.787Z,1009.86
2019-01-20T06:56:00.772Z,1009.88
2019-01-20T06:57:00.779Z,1009.91
2019-01-20T06:58:00.754Z,1009.91
2019-01-20T06:59:00.831Z,1009.91
2019-01-20T07:00:00.728Z,1009.94
2019-01-20T07:01:00.717Z,1009.96
2019-01-20T07:02:00.732Z,1010.00
2019-01-20T07:03:00.769Z,1010.03
2019-01-20T07:04:00.693Z,1010.03
2019-01-20T07:05:00.677Z,1010.07
2019-01-20T07:06:00.682Z,1010.11
2019-01-20T07:07:00.658Z,1010.12
2019-01-20T07:08:00.674Z,1010.12
2019-01-20T07:09:00.678Z,1010.14
2019-01-20T07:10:00.626Z,1010.09
2019-01-20T07:11:00.637Z,1010.16
2019-01-20T07:12:00.676Z,1010.18
2019-01-20T07:13:00.610Z,1010.18
2019-01-20T07:14:00.593Z,1010.20
2019-01-20T07:15:00.591Z,1010.18
2019-01-20T07:16:00.576Z,1010.16
2019-01-20T07:17:00.559Z,1010.22
2019-01-20T07:18:00.566Z,1010.21
2019-01-20T07:19:00.560Z,1010.20
2019-01-20T07:20:00.551Z,1010.24
2019-01-20T07:21:00.508Z,1010.26
2019-01-20T07:22:00.506Z,1010.28
2019-01-20T07:23:00.488Z,1010.29
2019-01-20T07:24:00.556Z,1010.25
2019-01-20T07:25:00.478Z,1010.27
2019-01-20T07:26:00.457Z,1010.34
2019-01-20T07:27:00.451Z,1010.34
2019-01-20T07:28:00.436Z,1010.33
2019-01-20T07:29:00.516Z,1010.32
2019-01-20T07:30:00.500Z,1010.38
2019-01-20T07:31:00.422Z,1010.38
2019-01-20T07:32:00.395Z,1010.38
2019-01-20T07:33:00.395Z,1010.41
2019-01-20T07:34:00.372Z,1010.39
2019-01-20T07:35:00.426Z,1010.38
2019-01-20T07:36:00.383Z,1010.40
2019-01-20T07:37:00.349Z,1010.43
2019-01-20T07:38:00.330Z,1010.45
2019-01-20T07:39:00.322Z,1010.46
2019-01-20T07:40:00.332Z,1010.42
2019-01-20T07:41:00.332Z,1010.47
2019-01-20T07:42:00.293Z,1010.44
2019-01-20T07:43:00.321Z,1010.49
2019-01-20T07:44:00.304Z,1010.49
2019-01-20T07:45:00.283Z,1010.49
2019-01-20T07:46:00.251Z,1010.51
2019-01-20T07:47:00.343Z,1010.54
2019-01-20T07:48:00.300Z,1010.55
2019-01-20T07:49:00.215Z,1010.52
2019-01-20T07:50:00.254Z,1010.60
2019-01-20T07:51:00.195Z,1010.58
2019-01-20T07:52:00.238Z,1010.60
2019-01-20T07:53:00.180Z,1010.61
2019-01-20T07:54:00.172Z,1010.66
2019-01-20T07:55:00.174Z,1010.65
2019-01-20T07:56:00.162Z,1010.65
2019-01-20T07:57:00.176Z,1010.64
2019-01-20T07:58:00.140Z,1010.64
2019-01-20T07:59:00.113Z,1010.63
2019-01-20T08:00:00.241Z,1010.65
2019-01-20T08:01:00.123Z,1010.68
2019-01-20T08:02:00.125Z,1010.68
2019-01-20T08:03:00.121Z,1010.67
2019-01-20T08:04:00.059Z,1010.74
2019-01-20T08:05:00.239Z,1010.75
2019-01-20T08:06:00.061Z,1010.71
2019-01-20T08:07:00.071Z,1010.76
2019-01-20T08:08:00.021Z,1010.78
2019-01-20T08:09:00.015Z,1010.79
2019-01-20T08:09:59.999Z,1010.82
2019-01-20T08:11:00.066Z,1010.87
2019-01-20T08:11:59.972Z,1010.79
2019-01-20T08:12:59.966Z,1010.84
2019-01-20T08:13:59.985Z,1010.86
2019-01-20T08:14:59.947Z,1010.81
2019-01-20T08:15:59.942Z,1010.88
2019-01-20T08:16:59.948Z,1010.86
2019-01-20T08:17:59.958Z,1010.84
2019-01-20T08:18:59.900Z,1010.83
2019-01-20T08:20:07.439Z,1010.83
2019-01-20T08:20:59.897Z,1010.83
2019-01-20T08:21:59.891Z,1010.84
2019-01-20T08:22:59.874Z,1010.83
2019-01-20T08:23:59.852Z,1010.89
2019-01-20T08:24:59.839Z,1010.87
2019-01-20T08:25:59.826Z,1010.89
2019-01-20T08:26:59.932Z,1010.94
2019-01-20T08:27:59.844Z,1010.90
2019-01-20T08:28:59.859Z,1010.90
2019-01-20T08:29:59.822Z,1010.94
2019-01-20T08:30:59.791Z,1010.92
2019-01-20T08:31:59.799Z,1010.94
2019-01-20T08:32:59.778Z,1010.99
2019-01-20T08:33:59.744Z,1011.04
2019-01-20T08:34:59.732Z,1011.02
2019-01-20T08:35:59.764Z,1011.05
2019-01-20T08:36:59.714Z,1011.11
2019-01-20T08:37:59.804Z,1011.11
2019-01-20T08:38:59.707Z,1011.13
2019-01-20T08:39:59.717Z,1011.14
2019-01-20T08:40:59.665Z,1011.17
2019-01-20T08:41:59.661Z,1011.18
2019-01-20T08:42:59.671Z,1011.22
2019-01-20T08:43:59.653Z,1011.23
2019-01-20T08:44:59.625Z,1011.22
2019-01-20T08:45:59.621Z,1011.23
2019-01-20T08:46:59.603Z,1011.24
2019-01-20T08:47:59.699Z,1011.21
2019-01-20T08:48:59.618Z,1011.25
2019-01-20T08:50:00.100Z,1011.26
2019-01-20T08:50:59.563Z,1011.22
2019-01-20T08:51:59.605Z,1011.28
2019-01-20T08:52:59.562Z,1011.32
2019-01-20T08:53:59.554Z,1011.28
2019-01-20T08:54:59.611Z,1011.29
2019-01-20T08:55:59.610Z,1011.26
2019-01-20T08:56:59.509Z,1011.33
2019-01-20T08:57:59.496Z,1011.29
2019-01-20T08:58:59.556Z,1011.21
2019-01-20T08:59:59.499Z,1011.25
2019-01-20T09:00:59.458Z,1011.23
2019-01-20T09:01:59.454Z,1011.31
2019-01-20T09:02:59.495Z,1011.27
2019-01-20T09:04:09.032Z,1011.25
2019-01-20T09:04:59.426Z,1011.26
2019-01-20T09:05:59.404Z,1011.26
2019-01-20T09:06:59.394Z,1011.30
2019-01-20T09:07:59.381Z,1011.27
2019-01-20T09:08:59.376Z,1011.31
2019-01-20T09:09:59.388Z,1011.30
2019-01-20T09:10:59.400Z,1011.33
2019-01-20T09:11:59.374Z,1011.32
2019-01-20T09:12:59.333Z,1011.32
2019-01-20T09:13:59.331Z,1011.37
2019-01-20T09:14:59.337Z,1011.35
2019-01-20T09:15:59.326Z,1011.40
2019-01-20T09:16:59.298Z,1011.44
2019-01-20T09:17:59.312Z,1011.36
2019-01-20T09:18:59.268Z,1011.40
2019-01-20T09:19:59.257Z,1011.40
2019-01-20T09:20:59.277Z,1011.40
2019-01-20T09:21:59.239Z,1011.40
2019-01-20T09:22:59.225Z,1011.39
2019-01-20T09:23:59.226Z,1011.47
2019-01-20T09:24:59.211Z,1011.38
2019-01-20T09:25:59.210Z,1011.45
2019-01-20T09:26:59.192Z,1011.45
2019-01-20T09:27:59.175Z,1011.50
2019-01-20T09:28:59.165Z,1011.51
2019-01-20T09:29:59.154Z,1011.56
2019-01-20T09:30:59.172Z,1011.52
2019-01-20T09:31:59.136Z,1011.51
2019-01-20T09:32:59.131Z,1011.51
2019-01-20T09:33:59.129Z,1011.55
2019-01-20T09:34:59.096Z,1011.52
2019-01-20T09:35:59.140Z,1011.53
2019-01-20T09:36:59.081Z,1011.54
2019-01-20T09:37:59.096Z,1011.56
2019-01-20T09:38:59.078Z,1011.60
2019-01-20T09:39:59.072Z,1011.59
2019-01-20T09:40:59.061Z,1011.58
2019-01-20T09:41:59.029Z,1011.62
2019-01-20T09:42:59.041Z,1011.63
2019-01-20T09:43:59.021Z,1011.63
2019-01-20T09:44:58.992Z,1011.61
2019-01-20T09:45:58.993Z,1011.63
2019-01-20T09:46:59.022Z,1011.67
2019-01-20T09:47:58.979Z,1011.64
2019-01-20T09:48:58.953Z,1011.68
2019-01-20T09:49:58.938Z,1011.73
2019-01-20T09:50:58.939Z,1011.68
2019-01-20T09:51:58.952Z,1011.69
2019-01-20T09:53:07.467Z,1011.64
2019-01-20T09:53:58.901Z,1011.66
2019-01-20T09:54:58.885Z,1011.62
2019-01-20T09:55:58.882Z,1011.60
2019-01-20T09:56:58.975Z,1011.64
2019-01-20T09:57:58.906Z,1011.63
2019-01-20T09:58:58.845Z,1011.66
2019-01-20T09:59:58.841Z,1011.63
2019-01-20T10:00:58.830Z,1011.64
2019-01-20T10:01:58.818Z,1011.70
2019-01-20T10:02:58.873Z,1011.67
2019-01-20T10:03:58.790Z,1011.70
2019-01-20T10:04:58.819Z,1011.72
2019-01-20T10:05:58.795Z,1011.72
2019-01-20T10:06:58.771Z,1011.77
2019-01-20T10:07:58.774Z,1011.80
2019-01-20T10:08:58.740Z,1011.80
2019-01-20T10:09:58.735Z,1011.80
2019-01-20T10:10:58.721Z,1011.81
2019-01-20T10:11:58.710Z,1011.84
2019-01-20T10:12:58.767Z,1011.84
2019-01-20T10:13:58.687Z,1011.86
2019-01-20T10:14:58.708Z,1011.83
2019-01-20T10:15:58.667Z,1011.83
2019-01-20T10:16:58.660Z,1011.84
2019-01-20T10:17:58.657Z,1011.84
2019-01-20T10:18:58.661Z,1011.85
2019-01-20T10:19:58.629Z,1011.81
2019-01-20T10:20:58.667Z,1011.86
2019-01-20T10:21:58.604Z,1011.89
2019-01-20T10:22:58.616Z,1011.87
2019-01-20T10:23:58.579Z,1011.85
2019-01-20T10:24:58.589Z,1011.82
2019-01-20T10:25:58.558Z,1011.81
2019-01-20T10:26:58.579Z,1011.79
2019-01-20T10:27:58.536Z,1011.80
2019-01-20T10:28:58.540Z,1011.79
2019-01-20T10:29:58.540Z,1011.84
2019-01-20T10:30:58.509Z,1011.82
2019-01-20T10:31:58.503Z,1011.83
2019-01-20T10:32:58.497Z,1011.85
2019-01-20T10:33:58.474Z,1011.85
2019-01-20T10:34:58.490Z,1011.85
2019-01-20T10:35:58.494Z,1011.86
2019-01-20T10:36:58.458Z,1011.91
2019-01-20T10:37:58.454Z,1011.89
2019-01-20T10:38:58.421Z,1011.88
2019-01-20T10:39:58.437Z,1011.92
2019-01-20T10:40:58.421Z,1011.90
2019-01-20T10:41:58.396Z,1011.96
2019-01-20T10:42:58.407Z,1011.94
2019-01-20T10:44:02.253Z,1011.95
2019-01-20T10:44:58.367Z,1011.94
2019-01-20T10:45:58.370Z,1011.89
2019-01-20T10:46:58.373Z,1011.93
2019-01-20T10:47:58.349Z,1011.92
2019-01-20T10:48:58.358Z,1011.94
2019-01-20T10:49:58.627Z,1011.92
2019-01-20T10:50:58.333Z,1011.92
2019-01-20T10:51:58.285Z,1011.91
2019-01-20T10:52:58.302Z,1011.93
2019-01-20T10:53:58.262Z,1011.93
2019-01-20T10:54:58.255Z,1011.96
2019-01-20T10:55:58.265Z,1011.94
2019-01-20T10:56:58.233Z,1011.91
2019-01-20T10:57:58.242Z,1011.99
2019-01-20T10:58:58.217Z,1011.98
2019-01-20T10:59:58.199Z,1011.99
2019-01-20T11:00:58.213Z,1011.95
2019-01-20T11:01:58.218Z,1011.94
2019-01-20T11:02:58.173Z,1011.92
2019-01-20T11:03:58.178Z,1011.95
2019-01-20T11:04:58.146Z,1011.95
2019-01-20T11:05:58.135Z,1011.98
2019-01-20T11:06:58.143Z,1011.96
2019-01-20T11:07:58.115Z,1011.94
2019-01-20T11:08:58.108Z,1011.93
2019-01-20T11:09:58.092Z,1011.92
2019-01-20T11:10:58.108Z,1011.91
2019-01-20T11:11:58.090Z,1011.90
2019-01-20T11:12:58.065Z,1011.93
2019-01-20T11:13:58.062Z,1011.94
2019-01-20T11:14:58.053Z,1011.89
2019-01-20T11:15:58.053Z,1011.91
2019-01-20T11:16:58.039Z,1011.88
2019-01-20T11:17:58.041Z,1011.88
2019-01-20T11:18:58.008Z,1011.92
2019-01-20T11:19:57.995Z,1011.87
2019-01-20T11:20:58.015Z,1011.87
2019-01-20T11:21:58.004Z,1011.91
2019-01-20T11:22:57.962Z,1011.89
2019-01-20T11:23:57.953Z,1011.87
2019-01-20T11:24:57.936Z,1011.89
2019-01-20T11:25:57.928Z,1011.87
2019-01-20T11:26:57.939Z,1011.92
2019-01-20T11:27:57.903Z,1011.88
2019-01-20T11:28:57.921Z,1011.90
2019-01-20T11:29:57.889Z,1011.93
2019-01-20T11:30:57.897Z,1011.94
2019-01-20T11:31:57.867Z,1011.91
2019-01-20T11:32:57.852Z,1011.94
2019-01-20T11:33:57.846Z,1011.95
2019-01-20T11:34:57.829Z,1011.91
2019-01-20T11:35:57.845Z,1011.96
2019-01-20T11:36:57.813Z,1011.95
2019-01-20T11:37:57.798Z,1011.98
2019-01-20T11:38:57.920Z,1011.94
2019-01-20T11:39:57.779Z,1011.93
2019-01-20T11:40:57.803Z,1011.96
2019-01-20T11:41:57.773Z,1011.93
2019-01-20T11:42:57.742Z,1011.96
2019-01-20T11:43:57.758Z,1011.94
2019-01-20T11:44:57.718Z,1011.94
2019-01-20T11:45:57.711Z,1011.91
2019-01-20T11:46:57.702Z,1011.95
2019-01-20T11:47:57.708Z,1012.01
2019-01-20T11:48:57.687Z,1011.99
2019-01-20T11:49:57.669Z,1011.92
2019-01-20T11:50:57.656Z,1011.96
2019-01-20T11:51:57.773Z,1011.99
2019-01-20T11:52:57.657Z,1011.98
2019-01-20T11:53:57.639Z,1011.97
2019-01-20T11:54:57.617Z,1012.00
2019-01-20T11:55:57.650Z,1011.98
2019-01-20T11:56:57.610Z,1011.99
2019-01-20T11:57:57.582Z,1011.93
2019-01-20T11:58:57.591Z,1011.98
2019-01-20T11:59:57.607Z,1011.95
2019-01-20T12:00:57.589Z,1011.98
2019-01-20T12:01:57.553Z,1011.96
2019-01-20T12:02:57.533Z,1011.94
2019-01-20T12:03:57.549Z,1011.94
2019-01-20T12:04:57.521Z,1011.97